createdAt,value
2018-08-04T00:00:01.314Z,1017.8
2018-08-04T00:01:01.300Z,1017.79
2018-08-04T00:02:01.463Z,1017.77
2018-08-04T00:03:01.310Z,1017.79
2018-08-04T00:04:01.329Z,1017.76
2018-08-04T00:05:01.301Z,1017.76
2018-08-04T00:06:01.357Z,1017.77
2018-08-04T00:07:01.461Z,1017.75
2018-08-04T00:08:01.383Z,1017.73
2018-08-04T00:09:01.366Z,1017.77
2018-08-04T00:10:01.423Z,1017.77
2018-08-04T00:11:01.363Z,1017.74
2018-08-04T00:12:01.362Z,1017.76
2018-08-04T00:13:01.337Z,1017.74
2018-08-04T00:14:01.388Z,1017.7
2018-08-04T00:15:01.314Z,1017.69
2018-08-04T00:16:01.301Z,1017.7
2018-08-04T00:17:01.344Z,1017.73
2018-08-04T00:18:01.420Z,1017.71
2018-08-04T00:19:01.886Z,1017.68
2018-08-04T00:20:01.323Z,1017.66
2018-08-04T00:21:01.410Z,1017.69
2018-08-04T00:22:01.703Z,1017.68
2018-08-04T00:23:01.328Z,1017.7
2018-08-04T00:24:01.354Z,1017.74
2018-08-04T00:25:01.364Z,1017.7
2018-08-04T00:26:01.444Z,1017.7
2018-08-04T00:27:01.334Z,1017.73
2018-08-04T00:28:01.486Z,1017.69
2018-08-04T00:29:01.343Z,1017.67
2018-08-04T00:30:01.355Z,1017.73
2018-08-04T00:31:01.466Z,1017.73
2018-08-04T00:32:01.373Z,1017.69
2018-08-04T00:33:01.381Z,1017.64
2018-08-04T00:34:01.356Z,1017.71
2018-08-04T00:35:01.662Z,1017.68
2018-08-04T00:36:01.373Z,1017.67
2018-08-04T00:37:01.349Z,1017.67
2018-08-04T00:38:01.398Z,1017.67
2018-08-04T00:39:01.813Z,1017.65
2018-08-04T00:40:01.380Z,1017.71
2018-08-04T00:41:01.453Z,1017.69
2018-08-04T00:42:01.477Z,1017.7
2018-08-04T00:43:01.359Z,1017.7
2018-08-04T00:44:01.445Z,1017.71
2018-08-04T00:45:01.561Z,1017.7
2018-08-04T00:46:01.441Z,1017.72
2018-08-04T00:47:01.385Z,1017.7
2018-08-04T00:48:01.517Z,1017.69
2018-08-04T00:49:01.349Z,1017.72
2018-08-04T00:50:02.106Z,1017.68
2018-08-04T00:51:01.432Z,1017.7
2018-08-04T00:52:01.712Z,1017.69
2018-08-04T00:53:01.486Z,1017.66
2018-08-04T00:54:01.361Z,1017.69
2018-08-04T00:55:01.364Z,1017.65
2018-08-04T00:56:01.426Z,1017.68
2018-08-04T00:57:01.409Z,1017.67
2018-08-04T00:58:01.473Z,1017.68
2018-08-04T00:59:01.608Z,1017.66
2018-08-04T01:00:01.720Z,1017.61
2018-08-04T01:01:01.661Z,1017.62
2018-08-04T01:02:01.461Z,1017.64
2018-08-04T01:03:01.416Z,1017.62
2018-08-04T01:04:01.387Z,1017.64
2018-08-04T01:05:01.399Z,1017.61
2018-08-04T01:06:01.394Z,1017.65
2018-08-04T01:07:01.387Z,1017.69
2018-08-04T01:08:01.400Z,1017.7
2018-08-04T01:09:01.407Z,1017.64
2018-08-04T01:10:01.385Z,1017.64
2018-08-04T01:11:01.399Z,1017.66
2018-08-04T01:12:01.409Z,1017.65
2018-08-04T01:13:01.411Z,1017.64
2018-08-04T01:14:01.428Z,1017.61
2018-08-04T01:15:01.397Z,1017.61
2018-08-04T01:16:01.449Z,1017.62
2018-08-04T01:17:01.400Z,1017.62
2018-08-04T01:18:01.414Z,1017.61
2018-08-04T01:19:01.396Z,1017.58
2018-08-04T01:20:01.409Z,1017.56
2018-08-04T01:21:01.450Z,1017.58
2018-08-04T01:22:01.400Z,1017.57
2018-08-04T01:23:01.421Z,1017.56
2018-08-04T01:24:01.557Z,1017.58
2018-08-04T01:25:01.431Z,1017.55
2018-08-04T01:26:01.439Z,1017.57
2018-08-04T01:27:01.634Z,1017.59
2018-08-04T01:28:01.484Z,1017.63
2018-08-04T01:29:01.441Z,1017.61
2018-08-04T01:30:01.617Z,1017.62
2018-08-04T01:31:01.487Z,1017.6
2018-08-04T01:32:01.622Z,1017.62
2018-08-04T01:33:01.675Z,1017.66
2018-08-04T01:34:01.573Z,1017.63
2018-08-04T01:35:01.462Z,1017.63
2018-08-04T01:36:01.443Z,1017.63
2018-08-04T01:37:01.911Z,1017.64
2018-08-04T01:38:01.451Z,1017.65
2018-08-04T01:39:01.637Z,1017.62
2018-08-04T01:40:01.436Z,1017.63
2018-08-04T01:41:01.549Z,1017.64
2018-08-04T01:42:02.144Z,1017.63
2018-08-04T01:43:01.461Z,1017.6
2018-08-04T01:44:01.616Z,1017.63
2018-08-04T01:45:01.525Z,1017.65
2018-08-04T01:46:01.499Z,1017.62
2018-08-04T01:47:01.433Z,1017.6
2018-08-04T01:48:01.574Z,1017.66
2018-08-04T01:49:01.474Z,1017.62
2018-08-04T01:50:01.448Z,1017.63
2018-08-04T01:51:01.613Z,1017.65
2018-08-04T01:52:01.465Z,1017.64
2018-08-04T01:53:01.441Z,1017.62
2018-08-04T01:54:01.454Z,1017.65
2018-08-04T01:55:01.587Z,1017.67
2018-08-04T01:56:01.439Z,1017.64
2018-08-04T01:57:01.552Z,1017.62
2018-08-04T01:58:01.495Z,1017.68
2018-08-04T01:59:01.555Z,1017.68
2018-08-04T02:00:01.600Z,1017.66
2018-08-04T02:01:01.478Z,1017.66
2018-08-04T02:02:01.478Z,1017.65
2018-08-04T02:03:01.470Z,1017.66
2018-08-04T02:04:01.510Z,1017.61
2018-08-04T02:05:01.844Z,1017.62
2018-08-04T02:06:01.474Z,1017.62
2018-08-04T02:07:01.468Z,1017.61
2018-08-04T02:08:01.489Z,1017.59
2018-08-04T02:09:01.606Z,1017.6
2018-08-04T02:10:01.502Z,1017.6
2018-08-04T02:11:01.499Z,1017.62
2018-08-04T02:12:01.675Z,1017.59
2018-08-04T02:13:01.478Z,1017.61
2018-08-04T02:14:01.503Z,1017.57
2018-08-04T02:15:01.478Z,1017.63
2018-08-04T02:16:01.527Z,1017.59
2018-08-04T02:17:01.776Z,1017.61
2018-08-04T02:18:01.511Z,1017.58
2018-08-04T02:19:01.495Z,1017.59
2018-08-04T02:20:01.480Z,1017.58
2018-08-04T02:21:01.523Z,1017.6
2018-08-04T02:22:01.483Z,1017.58
2018-08-04T02:23:01.475Z,1017.58
2018-08-04T02:24:01.502Z,1017.53
2018-08-04T02:25:01.502Z,1017.59
2018-08-04T02:26:01.515Z,1017.57
2018-08-04T02:27:01.480Z,1017.56
2018-08-04T02:28:01.492Z,1017.54
2018-08-04T02:29:01.504Z,1017.54
2018-08-04T02:30:01.520Z,1017.56
2018-08-04T02:31:01.497Z,1017.57
2018-08-04T02:32:01.538Z,1017.55
2018-08-04T02:33:01.528Z,1017.56
2018-08-04T02:34:01.508Z,1017.57
2018-08-04T02:35:01.523Z,1017.59
2018-08-04T02:36:01.511Z,1017.59
2018-08-04T02:37:01.509Z,1017.61
2018-08-04T02:38:01.500Z,1017.65
2018-08-04T02:39:01.541Z,1017.57
2018-08-04T02:40:01.510Z,1017.62
2018-08-04T02:41:01.518Z,1017.6
2018-08-04T02:42:01.739Z,1017.55
2018-08-04T02:43:01.499Z,1017.57
2018-08-04T02:44:01.544Z,1017.59
2018-08-04T02:45:01.762Z,1017.54
2018-08-04T02:46:01.754Z,1017.54
2018-08-04T02:47:01.544Z,1017.58
2018-08-04T02:48:01.583Z,1017.56
2018-08-04T02:49:01.658Z,1017.57
2018-08-04T02:50:01.604Z,1017.57
2018-08-04T02:51:01.546Z,1017.57
2018-08-04T02:52:01.784Z,1017.59
2018-08-04T02:53:01.541Z,1017.57
2018-08-04T02:54:01.557Z,1017.53
2018-08-04T02:55:01.595Z,1017.56
2018-08-04T02:56:01.639Z,1017.6
2018-08-04T02:57:01.595Z,1017.54
2018-08-04T02:58:01.574Z,1017.54
2018-08-04T02:59:01.553Z,1017.56
2018-08-04T03:00:01.632Z,1017.55
2018-08-04T03:01:01.716Z,1017.53
2018-08-04T03:02:01.579Z,1017.52
2018-08-04T03:03:01.534Z,1017.51
2018-08-04T03:04:01.771Z,1017.53
2018-08-04T03:05:01.694Z,1017.52
2018-08-04T03:06:01.577Z,1017.54
2018-08-04T03:07:01.542Z,1017.55
2018-08-04T03:08:01.562Z,1017.58
2018-08-04T03:09:01.923Z,1017.57
2018-08-04T03:10:01.679Z,1017.59
2018-08-04T03:11:01.569Z,1017.56
2018-08-04T03:12:01.697Z,1017.59
2018-08-04T03:13:01.585Z,1017.58
2018-08-04T03:14:01.759Z,1017.59
2018-08-04T03:15:01.639Z,1017.54
2018-08-04T03:16:01.569Z,1017.6
2018-08-04T03:17:01.577Z,1017.6
2018-08-04T03:18:01.563Z,1017.57
2018-08-04T03:19:01.714Z,1017.62
2018-08-04T03:20:01.654Z,1017.6
2018-08-04T03:21:01.575Z,1017.56
2018-08-04T03:22:01.566Z,1017.6
2018-08-04T03:23:01.566Z,1017.56
2018-08-04T03:24:01.578Z,1017.58
2018-08-04T03:25:01.721Z,1017.56
2018-08-04T03:26:01.636Z,1017.55
2018-08-04T03:27:01.591Z,1017.57
2018-08-04T03:28:01.672Z,1017.52
2018-08-04T03:29:01.611Z,1017.55
2018-08-04T03:30:01.752Z,1017.56
2018-08-04T03:31:01.598Z,1017.54
2018-08-04T03:32:01.670Z,1017.56
2018-08-04T03:33:01.631Z,1017.61
2018-08-04T03:34:01.681Z,1017.57
2018-08-04T03:35:01.630Z,1017.58
2018-08-04T03:36:01.601Z,1017.62
2018-08-04T03:37:01.595Z,1017.61
2018-08-04T03:38:01.587Z,1017.66
2018-08-04T03:39:01.644Z,1017.65
2018-08-04T03:40:01.605Z,1017.65
2018-08-04T03:41:01.588Z,1017.68
2018-08-04T03:42:01.598Z,1017.67
2018-08-04T03:43:01.619Z,1017.71
2018-08-04T03:44:01.633Z,1017.74
2018-08-04T03:45:01.598Z,1017.7
2018-08-04T03:46:01.641Z,1017.74
2018-08-04T03:47:01.611Z,1017.73
2018-08-04T03:48:01.603Z,1017.72
2018-08-04T03:49:01.635Z,1017.72
2018-08-04T03:50:01.645Z,1017.71
2018-08-04T03:51:01.653Z,1017.76
2018-08-04T03:52:01.658Z,1017.82
2018-08-04T03:53:01.593Z,1017.81
2018-08-04T03:54:01.610Z,1017.82
2018-08-04T03:55:01.616Z,1017.82
2018-08-04T03:56:01.619Z,1017.8
2018-08-04T03:57:02.051Z,1017.85
2018-08-04T03:58:01.798Z,1017.85
2018-08-04T03:59:01.599Z,1017.85
2018-08-04T04:00:01.817Z,1017.88
2018-08-04T04:01:01.607Z,1017.91
2018-08-04T04:02:01.671Z,1017.88
2018-08-04T04:03:01.667Z,1017.93
2018-08-04T04:04:01.704Z,1017.92
2018-08-04T04:05:01.624Z,1017.93
2018-08-04T04:06:01.618Z,1017.91
2018-08-04T04:07:01.632Z,1017.9
2018-08-04T04:08:01.687Z,1017.91
2018-08-04T04:09:01.661Z,1017.89
2018-08-04T04:10:01.629Z,1017.94
2018-08-04T04:11:01.809Z,1017.91
2018-08-04T04:12:01.690Z,1017.9
2018-08-04T04:13:01.696Z,1017.91
2018-08-04T04:14:01.677Z,1017.92
2018-08-04T04:15:01.668Z,1017.96
2018-08-04T04:16:01.683Z,1017.94
2018-08-04T04:17:01.681Z,1017.98
2018-08-04T04:18:01.694Z,1017.99
2018-08-04T04:19:01.781Z,1017.97
2018-08-04T04:20:01.711Z,1018
2018-08-04T04:21:02.014Z,1017.99
2018-08-04T04:22:01.685Z,1017.96
2018-08-04T04:23:01.719Z,1018
2018-08-04T04:24:01.791Z,1018
2018-08-04T04:25:01.672Z,1017.97
2018-08-04T04:26:01.705Z,1018
2018-08-04T04:27:01.681Z,1018.02
2018-08-04T04:28:01.639Z,1018.02
2018-08-04T04:29:01.655Z,1018
2018-08-04T04:30:01.669Z,1018.01
2018-08-04T04:31:01.680Z,1018.04
2018-08-04T04:32:01.662Z,1017.99
2018-08-04T04:33:01.902Z,1018.02
2018-08-04T04:34:01.781Z,1018.05
2018-08-04T04:35:01.668Z,1018.01
2018-08-04T04:36:01.772Z,1018.03
2018-08-04T04:37:01.719Z,1018.06
2018-08-04T04:38:01.701Z,1018.08
2018-08-04T04:39:01.929Z,1018.08
2018-08-04T04:40:01.662Z,1018.08
2018-08-04T04:41:01.932Z,1018.1
2018-08-04T04:42:01.654Z,1018.12
2018-08-04T04:43:01.857Z,1018.13
2018-08-04T04:44:01.879Z,1018.15
2018-08-04T04:45:02.064Z,1018.12
2018-08-04T04:46:01.931Z,1018.12
2018-08-04T04:47:01.719Z,1018.18
2018-08-04T04:48:01.732Z,1018.19
2018-08-04T04:49:01.900Z,1018.25
2018-08-04T04:50:01.951Z,1018.23
2018-08-04T04:51:01.937Z,1018.23
2018-08-04T04:52:01.684Z,1018.24
2018-08-04T04:53:01.716Z,1018.23
2018-08-04T04:54:01.692Z,1018.22
2018-08-04T04:55:01.664Z,1018.22
2018-08-04T04:56:01.679Z,1018.24
2018-08-04T04:57:01.707Z,1018.2
2018-08-04T04:58:01.728Z,1018.22
2018-08-04T04:59:01.772Z,1018.24
2018-08-04T05:00:01.705Z,1018.24
2018-08-04T05:01:01.757Z,1018.26
2018-08-04T05:02:01.884Z,1018.23
2018-08-04T05:03:01.701Z,1018.23
2018-08-04T05:04:01.724Z,1018.24
2018-08-04T05:05:01.720Z,1018.24
2018-08-04T05:06:01.708Z,1018.25
2018-08-04T05:07:01.905Z,1018.22
2018-08-04T05:08:01.745Z,1018.22
2018-08-04T05:09:01.697Z,1018.22
2018-08-04T05:10:01.720Z,1018.21
2018-08-04T05:11:01.710Z,1018.23
2018-08-04T05:12:01.726Z,1018.22
2018-08-04T05:13:01.954Z,1018.2
2018-08-04T05:14:01.736Z,1018.23
2018-08-04T05:15:01.727Z,1018.24
2018-08-04T05:16:01.701Z,1018.19
2018-08-04T05:17:01.749Z,1018.23
2018-08-04T05:18:01.718Z,1018.23
2018-08-04T05:19:01.875Z,1018.2
2018-08-04T05:20:01.750Z,1018.23
2018-08-04T05:21:01.728Z,1018.22
2018-08-04T05:22:01.721Z,1018.24
2018-08-04T05:23:01.729Z,1018.28
2018-08-04T05:24:01.962Z,1018.3
2018-08-04T05:25:01.718Z,1018.29
2018-08-04T05:26:01.732Z,1018.25
2018-08-04T05:27:01.772Z,1018.3
2018-08-04T05:28:01.805Z,1018.3
2018-08-04T05:29:01.926Z,1018.27
2018-08-04T05:30:01.826Z,1018.32
2018-08-04T05:31:02.081Z,1018.35
2018-08-04T05:32:01.905Z,1018.36
2018-08-04T05:33:01.741Z,1018.34
2018-08-04T05:34:01.759Z,1018.38
2018-08-04T05:35:01.758Z,1018.34
2018-08-04T05:36:01.744Z,1018.34
2018-08-04T05:37:01.920Z,1018.31
2018-08-04T05:38:01.776Z,1018.34
2018-08-04T05:39:01.804Z,1018.28
2018-08-04T05:40:01.743Z,1018.28
2018-08-04T05:41:01.749Z,1018.24
2018-08-04T05:42:01.872Z,1018.29
2018-08-04T05:43:02.053Z,1018.27
2018-08-04T05:44:01.893Z,1018.26
2018-08-04T05:45:01.948Z,1018.26
2018-08-04T05:46:01.767Z,1018.29
2018-08-04T05:47:01.797Z,1018.28
2018-08-04T05:48:01.842Z,1018.25
2018-08-04T05:49:01.802Z,1018.28
2018-08-04T05:50:02.053Z,1018.24
2018-08-04T05:51:01.742Z,1018.29
2018-08-04T05:52:01.940Z,1018.29
2018-08-04T05:53:01.813Z,1018.31
2018-08-04T05:54:01.793Z,1018.3
2018-08-04T05:55:01.809Z,1018.31
2018-08-04T05:56:02.054Z,1018.27
2018-08-04T05:57:01.767Z,1018.25
2018-08-04T05:58:01.945Z,1018.28
2018-08-04T05:59:01.971Z,1018.33
2018-08-04T06:00:01.821Z,1018.28
2018-08-04T06:01:01.810Z,1018.32
2018-08-04T06:02:01.789Z,1018.35
2018-08-04T06:03:01.766Z,1018.34
2018-08-04T06:04:01.776Z,1018.33
2018-08-04T06:05:01.896Z,1018.33
2018-08-04T06:06:01.788Z,1018.33
2018-08-04T06:07:01.780Z,1018.33
2018-08-04T06:08:01.830Z,1018.3
2018-08-04T06:09:01.771Z,1018.31
2018-08-04T06:10:01.780Z,1018.29
2018-08-04T06:11:01.829Z,1018.29
2018-08-04T06:12:01.813Z,1018.32
2018-08-04T06:13:01.774Z,1018.31
2018-08-04T06:14:01.838Z,1018.31
2018-08-04T06:15:01.849Z,1018.34
2018-08-04T06:16:01.798Z,1018.31
2018-08-04T06:17:01.776Z,1018.33
2018-08-04T06:18:01.789Z,1018.34
2018-08-04T06:19:01.800Z,1018.33
2018-08-04T06:20:01.808Z,1018.34
2018-08-04T06:21:01.843Z,1018.35
2018-08-04T06:22:01.908Z,1018.34
2018-08-04T06:23:01.819Z,1018.31
2018-08-04T06:24:01.938Z,1018.37
2018-08-04T06:25:01.921Z,1018.35
2018-08-04T06:26:01.815Z,1018.37
2018-08-04T06:27:01.780Z,1018.39
2018-08-04T06:28:01.811Z,1018.39
2018-08-04T06:29:01.790Z,1018.39
2018-08-04T06:30:02.193Z,1018.4
2018-08-04T06:31:02.127Z,1018.39
2018-08-04T06:32:01.803Z,1018.36
2018-08-04T06:33:01.804Z,1018.38
2018-08-04T06:34:01.804Z,1018.36
2018-08-04T06:35:01.962Z,1018.36
2018-08-04T06:36:02.113Z,1018.35
2018-08-04T06:37:01.832Z,1018.34
2018-08-04T06:38:01.966Z,1018.35
2018-08-04T06:39:02.024Z,1018.34
2018-08-04T06:40:01.972Z,1018.36
2018-08-04T06:41:01.941Z,1018.34
2018-08-04T06:42:01.958Z,1018.37
2018-08-04T06:43:01.948Z,1018.38
2018-08-04T06:44:01.835Z,1018.38
2018-08-04T06:45:01.952Z,1018.4
2018-08-04T06:46:01.955Z,1018.38
2018-08-04T06:47:01.841Z,1018.39
2018-08-04T06:48:01.920Z,1018.38
2018-08-04T06:49:01.843Z,1018.35
2018-08-04T06:50:01.898Z,1018.36
2018-08-04T06:51:01.958Z,1018.36
2018-08-04T06:52:01.883Z,1018.35
2018-08-04T06:53:02.177Z,1018.33
2018-08-04T06:54:01.997Z,1018.41
2018-08-04T06:55:01.960Z,1018.34
2018-08-04T06:56:01.978Z,1018.35
2018-08-04T06:57:01.952Z,1018.36
2018-08-04T06:58:02.051Z,1018.38
2018-08-04T06:59:01.907Z,1018.38
2018-08-04T07:00:02.062Z,1018.39
2018-08-04T07:01:02.181Z,1018.37
2018-08-04T07:02:01.943Z,1018.41
2018-08-04T07:03:01.891Z,1018.34
2018-08-04T07:04:02.102Z,1018.38
2018-08-04T07:05:01.905Z,1018.34
2018-08-04T07:06:01.868Z,1018.3
2018-08-04T07:07:01.926Z,1018.32
2018-08-04T07:08:01.861Z,1018.32
2018-08-04T07:09:02.017Z,1018.31
2018-08-04T07:10:01.905Z,1018.33
2018-08-04T07:11:01.926Z,1018.33
2018-08-04T07:12:03.427Z,1018.27
2018-08-04T07:13:02.636Z,1018.28
2018-08-04T07:14:01.885Z,1018.24
2018-08-04T07:15:02.024Z,1018.27
2018-08-04T07:16:01.899Z,1018.27
2018-08-04T07:17:01.881Z,1018.26
2018-08-04T07:18:01.965Z,1018.22
2018-08-04T07:19:01.905Z,1018.29
2018-08-04T07:20:01.965Z,1018.24
2018-08-04T07:21:01.953Z,1018.24
2018-08-04T07:22:01.904Z,1018.25
2018-08-04T07:23:02.174Z,1018.27
2018-08-04T07:24:01.965Z,1018.24
2018-08-04T07:25:01.924Z,1018.25
2018-08-04T07:26:01.880Z,1018.2
2018-08-04T07:27:01.909Z,1018.28
2018-08-04T07:28:01.873Z,1018.25
2018-08-04T07:29:02.169Z,1018.25
2018-08-04T07:30:01.926Z,1018.23
2018-08-04T07:31:01.900Z,1018.26
2018-08-04T07:32:01.935Z,1018.26
2018-08-04T07:33:01.884Z,1018.27
2018-08-04T07:34:01.900Z,1018.3
2018-08-04T07:35:01.904Z,1018.27
2018-08-04T07:36:01.929Z,1018.25
2018-08-04T07:37:01.911Z,1018.26
2018-08-04T07:38:01.929Z,1018.26
2018-08-04T07:39:01.924Z,1018.26
2018-08-04T07:40:01.910Z,1018.28
2018-08-04T07:41:02.130Z,1018.25
2018-08-04T07:42:01.958Z,1018.26
2018-08-04T07:43:01.921Z,1018.25
2018-08-04T07:44:01.946Z,1018.25
2018-08-04T07:45:01.901Z,1018.26
2018-08-04T07:46:01.929Z,1018.24
2018-08-04T07:47:02.069Z,1018.26
2018-08-04T07:48:01.906Z,1018.26
2018-08-04T07:49:02.112Z,1018.25
2018-08-04T07:50:02.015Z,1018.25
2018-08-04T07:51:01.951Z,1018.24
2018-08-04T07:52:01.983Z,1018.16
2018-08-04T07:53:01.946Z,1018.21
2018-08-04T07:54:02.281Z,1018.17
2018-08-04T07:55:01.933Z,1018.2
2018-08-04T07:56:01.912Z,1018.22
2018-08-04T07:57:01.927Z,1018.19
2018-08-04T07:58:01.961Z,1018.19
2018-08-04T07:59:01.949Z,1018.18
2018-08-04T08:00:01.944Z,1018.21
2018-08-04T08:01:01.959Z,1018.17
2018-08-04T08:02:01.965Z,1018.16
2018-08-04T08:03:01.976Z,1018.17
2018-08-04T08:04:01.950Z,1018.23
2018-08-04T08:05:02.134Z,1018.17
2018-08-04T08:06:01.921Z,1018.19
2018-08-04T08:07:02.151Z,1018.14
2018-08-04T08:08:02.001Z,1018.17
2018-08-04T08:09:02.001Z,1018.16
2018-08-04T08:10:01.949Z,1018.16
2018-08-04T08:11:02.155Z,1018.14
2018-08-04T08:12:01.953Z,1018.13
2018-08-04T08:13:02.002Z,1018.08
2018-08-04T08:14:01.976Z,1018.12
2018-08-04T08:15:02.041Z,1018.1
2018-08-04T08:16:02.132Z,1018.16
2018-08-04T08:17:01.965Z,1018.12
2018-08-04T08:18:01.972Z,1018.14
2018-08-04T08:19:01.940Z,1018.14
2018-08-04T08:20:02.144Z,1018.13
2018-08-04T08:21:02.359Z,1018.14
2018-08-04T08:22:01.953Z,1018.1
2018-08-04T08:23:02.300Z,1018.15
2018-08-04T08:24:02.118Z,1018.13
2018-08-04T08:25:01.955Z,1018.16
2018-08-04T08:26:01.962Z,1018.13
2018-08-04T08:27:03.394Z,1018.08
2018-08-04T08:28:02.029Z,1018.09
2018-08-04T08:29:02.174Z,1018.14
2018-08-04T08:30:01.974Z,1018.12
2018-08-04T08:31:01.970Z,1018.11
2018-08-04T08:32:01.995Z,1018.11
2018-08-04T08:33:01.972Z,1018.14
2018-08-04T08:34:01.980Z,1018.12
2018-08-04T08:35:01.978Z,1018.11
2018-08-04T08:36:01.974Z,1018.12
2018-08-04T08:37:02.020Z,1018.09
2018-08-04T08:38:02.248Z,1018.07
2018-08-04T08:39:01.986Z,1018.07
2018-08-04T08:40:01.993Z,1018.06
2018-08-04T08:41:02.010Z,1018.06
2018-08-04T08:42:02.027Z,1018.09
2018-08-04T08:43:01.976Z,1018.05
2018-08-04T08:44:02.003Z,1018
2018-08-04T08:45:01.998Z,1018.04
2018-08-04T08:46:02.026Z,1018.02
2018-08-04T08:47:02.151Z,1017.98
2018-08-04T08:48:02.000Z,1018
2018-08-04T08:49:02.044Z,1017.99
2018-08-04T08:50:02.448Z,1017.97
2018-08-04T08:51:02.010Z,1017.96
2018-08-04T08:52:02.019Z,1017.91
2018-08-04T08:53:02.244Z,1017.92
2018-08-04T08:54:02.506Z,1017.9
2018-08-04T08:55:02.037Z,1017.89
2018-08-04T08:56:02.021Z,1017.86
2018-08-04T08:57:02.020Z,1017.86
2018-08-04T08:58:02.025Z,1017.83
2018-08-04T08:59:02.019Z,1017.84
2018-08-04T09:00:02.035Z,1017.81
2018-08-04T09:01:02.042Z,1017.86
2018-08-04T09:02:02.007Z,1017.77
2018-08-04T09:03:02.069Z,1017.79
2018-08-04T09:04:02.053Z,1017.8
2018-08-04T09:05:02.234Z,1017.75
2018-08-04T09:06:02.018Z,1017.75
2018-08-04T09:07:02.001Z,1017.73
2018-08-04T09:08:02.013Z,1017.76
2018-08-04T09:09:02.009Z,1017.76
2018-08-04T09:10:02.061Z,1017.79
2018-08-04T09:11:02.053Z,1017.78
2018-08-04T09:12:02.167Z,1017.74
2018-08-04T09:13:02.162Z,1017.75
2018-08-04T09:14:02.031Z,1017.75
2018-08-04T09:15:02.053Z,1017.77
2018-08-04T09:16:02.051Z,1017.75
2018-08-04T09:17:02.145Z,1017.8
2018-08-04T09:18:02.089Z,1017.78
2018-08-04T09:19:02.112Z,1017.79
2018-08-04T09:20:02.040Z,1017.76
2018-08-04T09:21:02.047Z,1017.8
2018-08-04T09:22:02.177Z,1017.76
2018-08-04T09:23:02.176Z,1017.74
2018-08-04T09:24:02.210Z,1017.73
2018-08-04T09:25:02.043Z,1017.72
2018-08-04T09:26:02.135Z,1017.71
2018-08-04T09:27:02.163Z,1017.74
2018-08-04T09:28:02.248Z,1017.73
2018-08-04T09:29:02.067Z,1017.72
2018-08-04T09:30:02.078Z,1017.72
2018-08-04T09:31:02.150Z,1017.73
2018-08-04T09:32:02.127Z,1017.74
2018-08-04T09:33:02.049Z,1017.73
2018-08-04T09:34:02.116Z,1017.7
2018-08-04T09:35:02.038Z,1017.73
2018-08-04T09:36:02.039Z,1017.66
2018-08-04T09:37:02.130Z,1017.69
2018-08-04T09:38:02.337Z,1017.72
2018-08-04T09:39:02.140Z,1017.69
2018-08-04T09:40:02.058Z,1017.7
2018-08-04T09:41:02.271Z,1017.66
2018-08-04T09:42:02.284Z,1017.65
2018-08-04T09:43:02.076Z,1017.66
2018-08-04T09:44:02.056Z,1017.64
2018-08-04T09:45:02.105Z,1017.68
2018-08-04T09:46:02.169Z,1017.67
2018-08-04T09:47:02.686Z,1017.67
2018-08-04T09:48:02.292Z,1017.69
2018-08-04T09:49:02.073Z,1017.68
2018-08-04T09:50:02.305Z,1017.65
2018-08-04T09:51:02.071Z,1017.64
2018-08-04T09:52:03.052Z,1017.65
2018-08-04T09:53:02.095Z,1017.64
2018-08-04T09:54:02.067Z,1017.65
2018-08-04T09:55:02.166Z,1017.62
2018-08-04T09:56:02.097Z,1017.66
2018-08-04T09:57:02.090Z,1017.66
2018-08-04T09:58:02.090Z,1017.64
2018-08-04T09:59:02.074Z,1017.6
2018-08-04T10:00:02.081Z,1017.66
2018-08-04T10:01:02.129Z,1017.62
2018-08-04T10:02:02.087Z,1017.67
2018-08-04T10:03:02.154Z,1017.64
2018-08-04T10:04:02.139Z,1017.63
2018-08-04T10:05:04.403Z,1017.63
2018-08-04T10:06:02.173Z,1017.62
2018-08-04T10:07:02.206Z,1017.58
2018-08-04T10:08:02.088Z,1017.58
2018-08-04T10:09:02.104Z,1017.55
2018-08-04T10:10:02.146Z,1017.56
2018-08-04T10:11:02.109Z,1017.58
2018-08-04T10:12:02.103Z,1017.53
2018-08-04T10:13:02.152Z,1017.56
2018-08-04T10:14:02.139Z,1017.55
2018-08-04T10:15:02.203Z,1017.5
2018-08-04T10:16:02.129Z,1017.5
2018-08-04T10:17:02.125Z,1017.53
2018-08-04T10:18:02.108Z,1017.5
2018-08-04T10:19:02.154Z,1017.51
2018-08-04T10:20:02.140Z,1017.54
2018-08-04T10:21:02.144Z,1017.51
2018-08-04T10:22:02.145Z,1017.5
2018-08-04T10:23:02.132Z,1017.46
2018-08-04T10:24:02.198Z,1017.48
2018-08-04T10:25:02.188Z,1017.46
2018-08-04T10:26:02.358Z,1017.43
2018-08-04T10:27:02.282Z,1017.46
2018-08-04T10:28:02.253Z,1017.45
2018-08-04T10:29:02.129Z,1017.43
2018-08-04T10:30:02.155Z,1017.42
2018-08-04T10:31:02.748Z,1017.44
2018-08-04T10:32:02.447Z,1017.46
2018-08-04T10:33:02.169Z,1017.41
2018-08-04T10:34:02.192Z,1017.4
2018-08-04T10:35:02.405Z,1017.45
2018-08-04T10:36:02.293Z,1017.46
2018-08-04T10:37:02.210Z,1017.39
2018-08-04T10:38:03.207Z,1017.39
2018-08-04T10:39:02.128Z,1017.36
2018-08-04T10:40:02.340Z,1017.33
2018-08-04T10:41:02.503Z,1017.35
2018-08-04T10:42:02.222Z,1017.36
2018-08-04T10:43:02.233Z,1017.31
2018-08-04T10:44:06.849Z,1017.34
2018-08-04T10:45:02.340Z,1017.32
2018-08-04T10:46:02.207Z,1017.34
2018-08-04T10:47:02.185Z,1017.36
2018-08-04T10:48:02.249Z,1017.36
2018-08-04T10:49:02.219Z,1017.33
2018-08-04T10:50:02.339Z,1017.29
2018-08-04T10:51:02.382Z,1017.34
2018-08-04T10:52:02.242Z,1017.34
2018-08-04T10:53:02.207Z,1017.35
2018-08-04T10:54:02.230Z,1017.32
2018-08-04T10:55:02.243Z,1017.31
2018-08-04T10:56:02.189Z,1017.32
2018-08-04T10:57:02.323Z,1017.26
2018-08-04T10:58:02.203Z,1017.25
2018-08-04T10:59:02.176Z,1017.23
2018-08-04T11:00:02.193Z,1017.25
2018-08-04T11:01:02.338Z,1017.22
2018-08-04T11:02:02.187Z,1017.19
2018-08-04T11:03:02.167Z,1017.15
2018-08-04T11:04:02.280Z,1017.14
2018-08-04T11:05:02.183Z,1017.16
2018-08-04T11:06:02.216Z,1017.13
2018-08-04T11:07:02.344Z,1017.12
2018-08-04T11:08:02.296Z,1017.11
2018-08-04T11:09:02.363Z,1017.09
2018-08-04T11:10:02.468Z,1017.1
2018-08-04T11:11:02.219Z,1017.1
2018-08-04T11:12:02.255Z,1017.07
2018-08-04T11:13:02.389Z,1017.08
2018-08-04T11:14:02.702Z,1017.08
2018-08-04T11:15:02.606Z,1017.03
2018-08-04T11:16:02.307Z,1017.07
2018-08-04T11:17:02.231Z,1017.05
2018-08-04T11:18:02.414Z,1017.01
2018-08-04T11:19:02.421Z,1017.01
2018-08-04T11:20:03.361Z,1017.02
2018-08-04T11:21:02.229Z,1016.98
2018-08-04T11:22:03.454Z,1016.95
2018-08-04T11:23:04.395Z,1016.92
2018-08-04T11:24:02.411Z,1016.94
2018-08-04T11:25:02.359Z,1016.91
2018-08-04T11:26:02.263Z,1016.87
2018-08-04T11:27:02.270Z,1016.91
2018-08-04T11:28:02.378Z,1016.9
2018-08-04T11:29:02.393Z,1016.92
2018-08-04T11:30:02.391Z,1016.9
2018-08-04T11:31:02.415Z,1016.9
2018-08-04T11:32:02.406Z,1016.93
2018-08-04T11:33:02.412Z,1016.82
2018-08-04T11:34:02.316Z,1016.89
2018-08-04T11:35:02.323Z,1016.89
2018-08-04T11:36:02.329Z,1016.9
2018-08-04T11:37:03.365Z,1016.89
2018-08-04T11:38:02.453Z,1016.96
2018-08-04T11:39:02.699Z,1016.9
2018-08-04T11:40:02.477Z,1016.93
2018-08-04T11:41:02.365Z,1016.92
2018-08-04T11:42:02.373Z,1016.94
2018-08-04T11:43:02.377Z,1016.93
2018-08-04T11:44:02.383Z,1016.94
2018-08-04T11:45:02.500Z,1016.98
2018-08-04T11:46:02.396Z,1016.92
2018-08-04T11:47:02.415Z,1016.99
2018-08-04T11:48:02.627Z,1016.92
2018-08-04T11:49:02.422Z,1016.96
2018-08-04T11:50:02.434Z,1017
2018-08-04T11:51:02.285Z,1016.97
2018-08-04T11:52:02.446Z,1016.98
2018-08-04T11:53:02.360Z,1016.97
2018-08-04T11:54:02.352Z,1016.99
2018-08-04T11:55:02.467Z,1016.97
2018-08-04T11:56:03.407Z,1016.97
2018-08-04T11:57:02.287Z,1016.9
2018-08-04T11:58:02.379Z,1016.88
2018-08-04T11:59:02.286Z,1016.86
2018-08-04T12:00:02.307Z,1016.88
2018-08-04T12:01:02.423Z,1016.91
2018-08-04T12:02:02.720Z,1016.91
2018-08-04T12:03:02.274Z,1016.9
2018-08-04T12:04:02.428Z,1016.93
2018-08-04T12:05:02.325Z,1016.92
2018-08-04T12:06:02.304Z,1016.91
2018-08-04T12:07:02.444Z,1016.89
2018-08-04T12:08:02.280Z,1016.81